Time;durP1;ratioP1;P1;durP2;ratioP2;P2;SDS_P1;SDS_P2;PMS_P1;PMS_P2;Temp;Humidity;BMP_temperature;BMP_pressure;BME280_temperature;BME280_humidity;BME280_pressure;Samples;Min_cycle;Max_cycle;Signal;HPM_P1;HPM_P2
2021/01/24 00:00:30;;;;;;;;;;;;;;;-0.92;98.13;90789.28;1061604;56;20154;-85
2021/01/24 00:01:30;;;;;;;;;;;;;;;-0.91;98.20;90786.28;1061613;56;20162;-84
2021/01/24 00:02:31;;;;;;;;;;;;;;;-0.94;98.89;90788.97;1059570;56;20284;-82
2021/01/24 00:03:31;;;;;;;;;;;;;;;-0.95;98.79;90795.38;1057357;56;20197;-84
2021/01/24 00:04:31;;;;;;;;;;;;;;;-0.92;99.51;90782.19;1055338;56;20151;-84
2021/01/24 00:05:32;;;;;;;;;;;;;;;-0.87;98.05;90781.00;1057249;56;20174;-84
2021/01/24 00:06:32;;;;;;;;;;;;;;;-0.90;98.33;90787.75;1057377;56;20170;-83
2021/01/24 00:07:32;;;;;;;;;;;;;;;-0.93;98.59;90793.06;1057369;56;21220;-83
2021/01/24 00:08:33;;;;;;;;;;;;;;;-0.94;98.98;90792.31;1057419;56;20222;-83
2021/01/24 00:09:33;;;;;;;;;;;;;;;-0.89;98.00;90791.88;1059648;56;20173;-83
2021/01/24 00:10:33;;;;;;;;;;;;;;;-0.86;98.54;90798.94;1059612;56;20154;-84
2021/01/24 00:11:34;;;;;;;;;;;;;;;-0.86;98.38;90790.34;1059354;56;21188;-84
2021/01/24 00:12:34;;;;;;;;;;;;;;;-0.95;98.25;90795.38;1057420;56;20167;-83
2021/01/24 00:13:34;;;;;;;;;;;;;;;-0.98;99.21;90798.78;1057362;56;20151;-82
2021/01/24 00:14:35;;;;;;;;;;;;;;;-0.97;99.53;90797.62;1059595;56;20210;-83
2021/01/24 00:15:35;;;;;;;;;;;;;;;-0.97;99.40;90782.62;1059513;56;20260;-84
2021/01/24 00:16:35;;;;;;;;;;;;;;;-1.00;99.27;90780.84;1059523;56;20158;-83
2021/01/24 00:17:36;;;;;;;;;;;;;;;-1.02;99.52;90789.09;1059557;56;20163;-82
2021/01/24 00:18:36;;;;;;;;;;;;;;;-1.04;99.57;90786.13;1057451;56;20303;-83
2021/01/24 00:19:37;;;;;;;;;;;;;;;-1.07;99.23;90788.81;1057505;56;20169;-84
2021/01/24 00:20:37;;;;;;;;;;;;;;;-1.11;99.44;90788.84;1057468;56;20147;-84
2021/01/24 00:21:38;;;;;;;;;;;;;;;-1.09;99.23;90789.22;1057469;56;20166;-85
2021/01/24 00:22:38;;;;;;;;;;;;;;;-1.05;98.96;90789.16;1057455;56;20166;-83
2021/01/24 00:23:38;;;;;;;;;;;;;;;-1.03;98.66;90792.13;1054929;56;20170;-84
2021/01/24 00:24:39;;;;;;;;;;;;;;;-1.04;98.90;90788.75;1059318;56;20151;-83
2021/01/24 00:25:39;;;;;;;;;;;;;;;-1.02;98.31;90790.97;1061664;56;20147;-82
2021/01/24 00:26:40;;;;;;;;;;;;;;;-1.08;98.26;90793.31;1055313;56;20673;-84
2021/01/24 00:27:40;;;;;;;;;;;;;;;-1.07;98.63;90794.78;1057600;56;21141;-85
2021/01/24 00:28:40;;;;;;;;;;;;;;;-1.06;98.76;90785.78;1059351;56;20612;-83
2021/01/24 00:29:40;;;;;;;;;;;;;;;-1.01;97.58;90792.44;1055177;56;20166;-84
2021/01/24 00:30:41;;;;;;;;;;;;;;;-1.03;98.09;90798.09;1057302;56;20612;-83
2021/01/24 00:31:41;;;;;;;;;;;;;;;-1.03;97.43;90797.34;1057264;56;20182;-83
2021/01/24 00:32:41;;;;;;;;;;;;;;;-1.06;97.99;90801.50;1057258;56;20635;-84
2021/01/24 00:33:42;;;;;;;;;;;;;;;-1.08;97.99;90803.78;1059266;56;20158;-85
2021/01/24 00:34:43;;;;;;;;;;;;;;;-0.97;97.21;90802.88;1059366;56;20948;-84
2021/01/24 00:35:44;;;;;;;;;;;;;;;-0.99;97.14;90795.41;1056778;56;20158;-83
2021/01/24 00:36:44;;;;;;;;;;;;;;;-1.00;97.02;90809.66;1057256;56;20159;-85
2021/01/24 00:37:44;;;;;;;;;;;;;;;-0.99;96.57;90805.16;1055338;56;20167;-85
2021/01/24 00:38:45;;;;;;;;;;;;;;;-0.92;96.56;90807.66;1059535;56;20256;-85
2021/01/24 00:39:46;;;;;;;;;;;;;;;-0.92;95.99;90810.28;1061604;56;20157;-84
2021/01/24 00:40:46;;;;;;;;;;;;;;;-0.91;96.91;90809.16;1059457;56;20155;-83
2021/01/24 00:41:46;;;;;;;;;;;;;;;-1.00;97.79;90808.94;1059198;56;21000;-83
2021/01/24 00:42:47;;;;;;;;;;;;;;;-0.91;97.22;90817.03;1059386;56;20162;-83
2021/01/24 00:43:47;;;;;;;;;;;;;;;-0.94;96.75;90820.44;1057208;56;20710;-84
2021/01/24 00:44:47;;;;;;;;;;;;;;;-0.95;97.00;90813.72;1057068;56;20278;-83
2021/01/24 00:45:48;;;;;;;;;;;;;;;-0.92;97.20;90812.91;1059370;56;20158;-83
2021/01/24 00:46:48;;;;;;;;;;;;;;;-0.94;97.04;90809.94;1057567;56;20244;-83
2021/01/24 00:47:49;;;;;;;;;;;;;;;-0.90;96.34;90815.87;1059667;56;20245;-84
2021/01/24 00:48:49;;;;;;;;;;;;;;;-0.94;97.44;90821.16;1059326;56;20162;-83
2021/01/24 00:49:49;;;;;;;;;;;;;;;-0.99;97.94;90815.66;1061638;56;20158;-84
2021/01/24 00:50:50;;;;;;;;;;;;;;;-0.97;98.07;90815.97;1061636;56;20147;-83
2021/01/24 00:51:50;;;;;;;;;;;;;;;-0.98;98.11;90814.50;1061647;56;20162;-85
2021/01/24 00:52:50;;;;;;;;;;;;;;;-0.99;97.88;90816.37;1059326;56;20163;-83
2021/01/24 00:53:51;;;;;;;;;;;;;;;-1.01;98.45;90826.53;1057395;56;20194;-83
2021/01/24 00:54:51;;;;;;;;;;;;;;;-0.99;97.54;90826.13;1061620;56;20162;-85
2021/01/24 00:55:51;;;;;;;;;;;;;;;-1.00;98.12;90822.78;1061539;56;20150;-85
2021/01/24 00:56:51;;;;;;;;;;;;;;;-0.95;97.87;90824.94;1059580;56;20162;-85
2021/01/24 00:57:52;;;;;;;;;;;;;;;-0.93;97.11;90822.66;1059319;56;20165;-83
2021/01/24 00:58:52;;;;;;;;;;;;;;;-1.02;97.06;90820.53;1061506;56;20158;-83
2021/01/24 00:59:52;;;;;;;;;;;;;;;-1.05;98.24;90823.97;1061554;56;20202;-86
2021/01/24 01:00:53;;;;;;;;;;;;;;;-0.96;97.93;90828.72;1059488;56;20169;-82
2021/01/24 01:01:53;;;;;;;;;;;;;;;-0.98;97.59;90825.00;1061633;56;20177;-82
2021/01/24 01:02:53;;;;;;;;;;;;;;;-1.00;98.08;90817.53;1057312;56;20233;-84
2021/01/24 01:03:54;;;;;;;;;;;;;;;-1.04;98.42;90822.09;1059496;56;20154;-83
2021/01/24 01:04:54;;;;;;;;;;;;;;;-1.10;98.40;90821.81;1063498;55;20197;-84
2021/01/24 01:05:54;;;;;;;;;;;;;;;-1.05;98.17;90831.09;1063703;55;20165;-86
2021/01/24 01:06:55;;;;;;;;;;;;;;;-1.06;98.54;90821.75;1059478;56;20288;-84
2021/01/24 01:07:55;;;;;;;;;;;;;;;-1.06;98.06;90819.84;1057379;56;20171;-84
2021/01/24 01:08:55;;;;;;;;;;;;;;;-1.03;97.96;90813.81;1059430;56;20166;-82
2021/01/24 01:09:55;;;;;;;;;;;;;;;-1.03;97.22;90818.31;1059279;56;20171;-83
2021/01/24 01:10:56;;;;;;;;;;;;;;;-1.04;97.98;90819.47;1059458;56;20193;-83
2021/01/24 01:11:56;;;;;;;;;;;;;;;-1.10;97.41;90819.19;1061679;56;20181;-84
2021/01/24 01:12:56;;;;;;;;;;;;;;;-1.10;98.15;90815.81;1061313;56;20162;-83
2021/01/24 01:13:57;;;;;;;;;;;;;;;-1.14;98.31;90818.50;1060977;56;20165;-85
2021/01/24 01:14:57;;;;;;;;;;;;;;;-1.15;98.24;90821.50;1059152;56;20623;-84
2021/01/24 01:15:57;;;;;;;;;;;;;;;-1.11;98.21;90819.56;1057039;56;20159;-86
2021/01/24 01:16:57;;;;;;;;;;;;;;;-1.11;98.78;90822.94;1059532;56;20146;-84
2021/01/24 01:17:58;;;;;;;;;;;;;;;-1.16;98.97;90820.03;1059365;56;20237;-83
2021/01/24 01:18:59;;;;;;;;;;;;;;;-1.21;99.10;90828.34;1059456;56;21073;-84
2021/01/24 01:19:59;;;;;;;;;;;;;;;-1.20;98.99;90827.94;1057367;56;20166;-83
2021/01/24 01:20:59;;;;;;;;;;;;;;;-1.11;98.97;90830.06;1057523;56;20159;-85
2021/01/24 01:22:00;;;;;;;;;;;;;;;-1.18;98.06;90832.81;1057358;56;20147;-84
2021/01/24 01:23:00;;;;;;;;;;;;;;;-1.19;98.67;90829.41;1057333;56;20170;-84
2021/01/24 01:24:00;;;;;;;;;;;;;;;-1.24;97.73;90832.50;1059410;56;20328;-84
2021/01/24 01:25:01;;;;;;;;;;;;;;;-1.17;97.98;90837.66;1060914;56;20166;-83
2021/01/24 01:26:01;;;;;;;;;;;;;;;-1.10;98.23;90829.69;1059263;56;20151;-83
2021/01/24 01:27:01;;;;;;;;;;;;;;;-1.15;97.58;90842.47;1059446;56;20173;-84
2021/01/24 01:28:01;;;;;;;;;;;;;;;-1.16;96.92;90836.50;1059417;56;20643;-83
2021/01/24 01:29:02;;;;;;;;;;;;;;;-1.12;96.73;90839.81;1061295;56;20142;-84
2021/01/24 01:30:05;;;;;;;;;;;;;;;-1.21;97.26;90844.81;1061642;56;20150;-85
2021/01/24 01:31:06;;;;;;;;;;;;;;;-1.23;97.32;90848.97;1059528;56;20255;-83
2021/01/24 01:32:06;;;;;;;;;;;;;;;-1.22;96.33;90842.59;1057212;56;20190;-84
2021/01/24 01:33:06;;;;;;;;;;;;;;;-1.18;96.50;90851.16;1057443;56;20147;-83
2021/01/24 01:34:07;;;;;;;;;;;;;;;-1.22;96.69;90845.97;1059565;56;20280;-83
2021/01/24 01:35:07;;;;;;;;;;;;;;;-1.23;97.17;90854.94;1059298;56;20158;-83
2021/01/24 01:36:08;;;;;;;;;;;;;;;-1.26;96.29;90855.75;1057420;56;20166;-83
2021/01/24 01:37:08;;;;;;;;;;;;;;;-1.31;95.02;90854.31;1057346;56;20245;-83
2021/01/24 01:38:09;;;;;;;;;;;;;;;-1.28;95.62;90871.84;1059536;56;20178;-83
2021/01/24 01:39:09;;;;;;;;;;;;;;;-1.30;95.68;90871.53;1059574;56;20162;-83
2021/01/24 01:40:10;;;;;;;;;;;;;;;-1.31;95.97;90885.78;1061536;56;20150;-86
2021/01/24 01:41:10;;;;;;;;;;;;;;;-1.32;97.10;90886.16;1057334;56;20686;-83
2021/01/24 01:42:12;;;;;;;;;;;;;;;-1.37;97.10;90894.47;1057310;56;20645;-82
2021/01/24 01:43:12;;;;;;;;;;;;;;;-1.42;97.45;90894.91;1056869;56;20214;-83
2021/01/24 01:44:12;;;;;;;;;;;;;;;-1.42;97.37;90908.75;1058955;56;20234;-82
2021/01/24 01:45:13;;;;;;;;;;;;;;;-1.52;96.95;90907.00;1057260;56;20166;-85
2021/01/24 01:46:18;;;;;;;;;;;;;;;-1.52;97.08;90905.12;1057205;56;20150;-84
2021/01/24 01:47:22;;;;;;;;;;;;;;;-1.54;97.96;90927.59;1057298;56;20178;-83
2021/01/24 01:48:22;;;;;;;;;;;;;;;-1.58;97.85;90913.81;1059487;56;20166;-83
2021/01/24 01:49:24;;;;;;;;;;;;;;;-1.59;97.81;90920.19;1059212;56;20150;-84
2021/01/24 01:50:24;;;;;;;;;;;;;;;-1.61;97.95;90923.22;1057548;56;20150;-83
2021/01/24 01:51:25;;;;;;;;;;;;;;;-1.58;97.88;90921.66;1059548;56;20201;-82
2021/01/24 01:52:26;;;;;;;;;;;;;;;-1.62;96.95;90931.47;1059630;56;20170;-82
2021/01/24 01:53:26;;;;;;;;;;;;;;;-1.67;98.10;90919.53;1058999;56;20273;-84
2021/01/24 01:54:27;;;;;;;;;;;;;;;-1.63;98.28;90927.34;1061777;56;20297;-84
2021/01/24 01:55:27;;;;;;;;;;;;;;;-1.64;98.57;90931.09;1061614;56;20155;-84
2021/01/24 01:56:28;;;;;;;;;;;;;;;-1.66;98.18;90926.28;1057308;56;20670;-83
2021/01/24 01:57:28;;;;;;;;;;;;;;;-1.66;97.28;90938.63;1059604;56;20264;-83
2021/01/24 01:58:28;;;;;;;;;;;;;;;-1.68;96.86;90941.62;1064058;55;20145;-84
2021/01/24 01:59:29;;;;;;;;;;;;;;;-1.73;96.41;90947.28;1059373;56;20201;-82
2021/01/24 02:00:29;;;;;;;;;;;;;;;-1.69;97.75;90948.00;1059562;56;20158;-82
2021/01/24 02:01:46;;;;;;;;;;;;;;;-1.67;98.16;90948.34;1059355;56;20151;-83
2021/01/24 02:02:48;;;;;;;;;;;;;;;-1.77;97.77;90949.22;1057783;56;20158;-83
2021/01/24 02:03:49;;;;;;;;;;;;;;;-1.72;98.17;90958.50;1057127;56;20155;-83
2021/01/24 02:04:53;;;;;;;;;;;;;;;-1.72;97.46;90954.00;1057152;56;20167;-84
2021/01/24 02:06:02;;;;;;;;;;;;;;;-1.72;97.33;90955.88;1057453;56;20166;-83
2021/01/24 02:07:08;;;;;;;;;;;;;;;-1.78;96.50;90964.19;1056888;56;20186;-84
2021/01/24 02:08:08;;;;;;;;;;;;;;;-1.71;96.40;90966.00;1057023;56;20219;-83
2021/01/24 02:09:19;;;;;;;;;;;;;;;-1.82;96.52;90966.09;1057218;56;20158;-83
2021/01/24 02:10:33;;;;;;;;;;;;;;;-1.80;94.72;90976.94;1059632;56;20182;-83
2021/01/24 02:11:39;;;;;;;;;;;;;;;-1.87;93.69;90984.13;1057371;56;20571;-83
2021/01/24 02:12:48;;;;;;;;;;;;;;;-1.88;93.58;90986.00;1057407;56;20187;-84
2021/01/24 02:13:55;;;;;;;;;;;;;;;-1.87;93.67;90977.00;1061669;56;20162;-83
2021/01/24 02:14:59;;;;;;;;;;;;;;;-1.86;93.44;90993.44;1059058;56;20166;-83
2021/01/24 02:16:02;;;;;;;;;;;;;;;-1.93;92.62;90994.28;1057044;56;20155;-83
2021/01/24 02:17:05;;;;;;;;;;;;;;;-2.00;93.82;90985.75;1056340;56;20152;-84
2021/01/24 02:18:07;;;;;;;;;;;;;;;-1.93;94.21;90996.91;1059761;56;20166;-83
2021/01/24 02:19:11;;;;;;;;;;;;;;;-2.00;93.36;91020.50;1058771;56;20193;-82
2021/01/24 02:20:17;;;;;;;;;;;;;;;-2.03;92.46;90997.72;1059432;56;20177;-83
2021/01/24 02:21:20;;;;;;;;;;;;;;;-2.03;91.82;91006.31;1063891;55;20255;-83
2021/01/24 02:22:22;;;;;;;;;;;;;;;-2.03;92.87;91013.44;1061374;56;20154;-84
2021/01/24 02:23:24;;;;;;;;;;;;;;;-2.05;90.82;91011.22;1059185;56;20177;-84
2021/01/24 02:24:27;;;;;;;;;;;;;;;-2.03;89.76;90998.47;1056580;56;20190;-82
2021/01/24 02:25:46;;;;;;;;;;;;;;;-2.00;90.43;91004.81;1058637;56;20181;-83
2021/01/24 02:26:52;;;;;;;;;;;;;;;-1.96;91.74;90996.91;1059991;56;20162;-83
2021/01/24 02:28:07;;;;;;;;;;;;;;;-2.00;91.11;90993.59;1059348;56;21151;-84
2021/01/24 02:29:13;;;;;;;;;;;;;;;-2.01;90.33;90995.47;1057685;56;20181;-83
2021/01/24 02:30:24;;;;;;;;;;;;;;;-2.05;91.68;91007.84;1057424;56;20185;-85
2021/01/24 02:31:26;;;;;;;;;;;;;;;-2.12;91.37;91002.66;1057664;56;20647;-83
2021/01/24 02:32:27;;;;;;;;;;;;;;;-2.13;92.02;91012.41;1055162;56;20170;-86
2021/01/24 02:33:28;;;;;;;;;;;;;;;-2.13;92.56;91015.00;1059394;56;20692;-83
2021/01/24 02:34:30;;;;;;;;;;;;;;;-2.16;94.09;91015.78;1059339;56;20158;-84
2021/01/24 02:35:31;;;;;;;;;;;;;;;-2.14;92.54;91025.88;1057244;56;20167;-82
2021/01/24 02:36:32;;;;;;;;;;;;;;;-2.12;93.10;91019.12;1057096;56;20717;-81
2021/01/24 02:37:32;;;;;;;;;;;;;;;-2.18;91.99;91019.94;1059034;56;20185;-83
2021/01/24 02:38:33;;;;;;;;;;;;;;;-2.19;93.04;91028.91;1058015;56;20253;-84
2021/01/24 02:39:34;;;;;;;;;;;;;;;-2.17;93.30;91019.53;1057281;56;20163;-84
2021/01/24 02:40:36;;;;;;;;;;;;;;;-2.12;93.20;91026.22;1057238;56;20167;-83
2021/01/24 02:41:37;;;;;;;;;;;;;;;-2.17;92.16;91026.66;1059230;56;20193;-83
2021/01/24 02:42:38;;;;;;;;;;;;;;;-2.14;94.19;91037.09;1055850;56;20331;-83
2021/01/24 02:43:42;;;;;;;;;;;;;;;-2.12;93.12;91049.78;1056644;56;20615;-81
2021/01/24 02:44:43;;;;;;;;;;;;;;;-2.11;93.28;91041.56;1057089;56;20218;-85
2021/01/24 02:45:45;;;;;;;;;;;;;;;-2.14;89.98;91042.31;1058507;56;20659;-84
2021/01/24 02:46:45;;;;;;;;;;;;;;;-2.24;90.07;91037.91;1056344;56;20170;-83
2021/01/24 02:47:47;;;;;;;;;;;;;;;-2.24;89.97;91047.63;1054923;56;20177;-82
2021/01/24 02:48:48;;;;;;;;;;;;;;;-2.32;89.29;91039.09;1053680;56;20218;-83
2021/01/24 02:49:49;;;;;;;;;;;;;;;-2.31;90.29;91036.09;1056838;56;20154;-85
2021/01/24 02:50:49;;;;;;;;;;;;;;;-2.29;92.58;91033.81;1057023;56;20151;-83
2021/01/24 02:51:51;;;;;;;;;;;;;;;-2.31;92.01;91037.97;1054821;56;20170;-83
2021/01/24 02:52:53;;;;;;;;;;;;;;;-2.29;91.04;91051.41;1056531;56;20162;-85
2021/01/24 02:53:53;;;;;;;;;;;;;;;-2.35;89.26;91047.72;1059008;56;20225;-83
2021/01/24 02:54:54;;;;;;;;;;;;;;;-2.39;88.23;91063.44;1061568;56;20162;-83
2021/01/24 02:55:54;;;;;;;;;;;;;;;-2.42;90.56;91053.75;1060775;56;20189;-83
2021/01/24 02:56:54;;;;;;;;;;;;;;;-2.38;88.76;91067.53;1057102;56;20600;-82
2021/01/24 02:57:55;;;;;;;;;;;;;;;-2.39;90.50;91058.22;1057173;56;20190;-82
2021/01/24 02:58:56;;;;;;;;;;;;;;;-2.35;90.66;91061.53;1059149;56;20186;-84
2021/01/24 02:59:56;;;;;;;;;;;;;;;-2.38;88.00;91069.41;1057004;56;20647;-82
2021/01/24 03:00:56;;;;;;;;;;;;;;;-2.46;88.76;91073.94;1058951;56;20169;-85
2021/01/24 03:01:57;;;;;;;;;;;;;;;-2.53;90.18;91074.75;1061374;56;20607;-84
2021/01/24 03:02:58;;;;;;;;;;;;;;;-2.45;91.05;91072.09;1059112;56;20170;-84
2021/01/24 03:03:58;;;;;;;;;;;;;;;-2.54;88.09;91078.50;1060790;56;20151;-83
2021/01/24 03:04:58;;;;;;;;;;;;;;;-2.49;88.75;91079.97;1061428;56;20296;-83
2021/01/24 03:05:59;;;;;;;;;;;;;;;-2.43;90.04;91083.66;1060945;56;20247;-84
2021/01/24 03:07:00;;;;;;;;;;;;;;;-2.51;89.94;91082.19;1059181;56;20155;-85
2021/01/24 03:08:00;;;;;;;;;;;;;;;-2.48;91.34;91088.53;1057117;56;20154;-84
2021/01/24 03:09:01;;;;;;;;;;;;;;;-2.48;91.32;91088.53;1057079;56;20151;-83
2021/01/24 03:10:01;;;;;;;;;;;;;;;-2.48;90.79;91097.13;1059182;56;20244;-84
2021/01/24 03:11:02;;;;;;;;;;;;;;;-2.51;90.08;91076.97;1060949;56;20158;-82
2021/01/24 03:12:04;;;;;;;;;;;;;;;-2.54;91.09;91078.50;1061249;56;20154;-83
2021/01/24 03:13:16;;;;;;;;;;;;;;;-2.51;93.06;91084.06;1059189;56;20162;-85
2021/01/24 03:14:21;;;;;;;;;;;;;;;-2.51;88.62;91076.22;1060464;56;20255;-84
2021/01/24 03:15:22;;;;;;;;;;;;;;;-2.51;88.76;91087.44;1056796;56;20191;-85
2021/01/24 03:16:23;;;;;;;;;;;;;;;-2.55;89.36;91095.31;1057066;56;20147;-83
2021/01/24 03:17:24;;;;;;;;;;;;;;;-2.51;89.05;91089.31;1056979;56;20272;-83
2021/01/24 03:18:26;;;;;;;;;;;;;;;-2.53;89.10;91093.06;1057077;56;20159;-84
2021/01/24 03:19:28;;;;;;;;;;;;;;;-2.47;88.93;91103.84;1056677;56;20219;-83
2021/01/24 03:20:30;;;;;;;;;;;;;;;-2.48;87.26;91091.16;1058814;56;20162;-83
2021/01/24 03:21:31;;;;;;;;;;;;;;;-2.52;87.86;91091.19;1056827;56;20267;-85
2021/01/24 03:22:33;;;;;;;;;;;;;;;-2.53;86.08;91105.38;1058954;56;20189;-83
2021/01/24 03:23:34;;;;;;;;;;;;;;;-2.60;88.08;91103.53;1058343;56;20173;-83
2021/01/24 03:24:36;;;;;;;;;;;;;;;-2.62;87.85;91102.47;1055051;56;20655;-83
2021/01/24 03:25:38;;;;;;;;;;;;;;;-2.68;88.42;91107.31;1056308;56;20162;-83
2021/01/24 03:26:38;;;;;;;;;;;;;;;-2.66;89.15;91097.25;1060991;56;20602;-83
2021/01/24 03:27:38;;;;;;;;;;;;;;;-2.62;87.99;91107.69;1058959;56;20170;-82
2021/01/24 03:28:39;;;;;;;;;;;;;;;-2.66;88.14;91118.16;1059247;56;20146;-85
2021/01/24 03:29:39;;;;;;;;;;;;;;;-2.62;86.33;91108.44;1058833;56;20175;-82
2021/01/24 03:30:40;;;;;;;;;;;;;;;-2.61;88.53;91117.75;1057125;56;20170;-83
2021/01/24 03:31:40;;;;;;;;;;;;;;;-2.62;87.68;91111.03;1061165;56;20158;-82
2021/01/24 03:32:41;;;;;;;;;;;;;;;-2.64;89.16;91117.78;1059096;56;20178;-82
2021/01/24 03:33:41;;;;;;;;;;;;;;;-2.62;89.82;91131.97;1054988;56;20151;-82
2021/01/24 03:34:42;;;;;;;;;;;;;;;-2.67;89.02;91137.59;1058964;56;20155;-83
2021/01/24 03:35:42;;;;;;;;;;;;;;;-2.61;90.28;91141.28;1058880;56;20782;-84
2021/01/24 03:36:43;;;;;;;;;;;;;;;-2.63;90.61;91140.94;1059020;56;20174;-85
2021/01/24 03:37:43;;;;;;;;;;;;;;;-2.66;89.56;91146.91;1061303;56;20203;-83
2021/01/24 03:38:43;;;;;;;;;;;;;;;-2.71;91.31;91154.44;1061048;56;20591;-82
2021/01/24 03:39:44;;;;;;;;;;;;;;;-2.72;92.34;91139.84;1056896;56;20266;-83
2021/01/24 03:40:44;;;;;;;;;;;;;;;-2.72;91.21;91153.69;1059021;56;20627;-84
2021/01/24 03:41:45;;;;;;;;;;;;;;;-2.76;93.54;91142.50;1059046;56;20178;-84
2021/01/24 03:42:45;;;;;;;;;;;;;;;-2.79;91.82;91135.41;1056393;56;20211;-83
2021/01/24 03:43:45;;;;;;;;;;;;;;;-2.83;90.79;91148.50;1059536;56;20170;-82
2021/01/24 03:44:46;;;;;;;;;;;;;;;-2.91;91.21;91154.88;1058946;56;20188;-84
2021/01/24 03:45:46;;;;;;;;;;;;;;;-2.93;92.00;91149.28;1061119;56;20279;-83
2021/01/24 03:46:46;;;;;;;;;;;;;;;-2.83;93.85;91145.88;1060813;56;20166;-82
2021/01/24 03:47:46;;;;;;;;;;;;;;;-2.88;92.88;91154.13;1057150;56;20198;-83
2021/01/24 03:48:47;;;;;;;;;;;;;;;-2.95;92.64;91158.63;1058373;56;20155;-83
2021/01/24 03:49:47;;;;;;;;;;;;;;;-2.97;93.22;91150.44;1061178;56;20184;-83
2021/01/24 03:50:48;;;;;;;;;;;;;;;-2.85;94.08;91157.84;1057113;56;20181;-82
2021/01/24 03:51:48;;;;;;;;;;;;;;;-2.89;93.93;91151.91;1055102;56;20155;-82
2021/01/24 03:52:48;;;;;;;;;;;;;;;-2.81;94.66;91148.09;1056773;56;20155;-82
2021/01/24 03:53:49;;;;;;;;;;;;;;;-2.84;94.89;91143.66;1058983;56;20576;-82
2021/01/24 03:54:49;;;;;;;;;;;;;;;-2.82;94.48;91149.97;1059182;56;20159;-82
2021/01/24 03:55:49;;;;;;;;;;;;;;;-2.80;93.29;91152.22;1056933;56;20250;-82
2021/01/24 03:56:50;;;;;;;;;;;;;;;-2.83;92.17;91150.38;1056838;56;20166;-85
2021/01/24 03:57:50;;;;;;;;;;;;;;;-2.88;89.36;91142.91;1056796;56;20151;-83
2021/01/24 03:58:50;;;;;;;;;;;;;;;-2.88;90.23;91148.16;1057041;56;20206;-85
2021/01/24 03:59:51;;;;;;;;;;;;;;;-2.83;88.48;91158.19;1059363;56;20253;-83
2021/01/24 04:00:52;;;;;;;;;;;;;;;-2.79;91.07;91156.31;1059390;56;20182;-82
2021/01/24 04:01:52;;;;;;;;;;;;;;;-2.84;90.32;91160.06;1059455;56;20959;-82
2021/01/24 04:02:52;;;;;;;;;;;;;;;-2.85;90.27;91163.09;1057387;56;20162;-83
2021/01/24 04:03:52;;;;;;;;;;;;;;;-2.88;89.69;91164.56;1059434;56;20158;-82
2021/01/24 04:04:53;;;;;;;;;;;;;;;-2.87;89.11;91158.22;1061167;56;20161;-83
2021/01/24 04:05:53;;;;;;;;;;;;;;;-2.81;88.86;91166.41;1057288;56;21081;-85
2021/01/24 04:06:53;;;;;;;;;;;;;;;-2.85;88.48;91163.81;1061792;56;20177;-83
2021/01/24 04:07:54;;;;;;;;;;;;;;;-2.85;89.15;91169.06;1061575;56;20142;-83
2021/01/24 04:08:54;;;;;;;;;;;;;;;-2.94;86.48;91165.31;1057182;56;20194;-82
2021/01/24 04:09:54;;;;;;;;;;;;;;;-2.97;88.08;91158.28;1059421;56;21192;-83
2021/01/24 04:10:55;;;;;;;;;;;;;;;-2.99;85.97;91169.09;1060882;56;20276;-83
2021/01/24 04:11:56;;;;;;;;;;;;;;;-2.98;86.94;91169.84;1061643;56;20565;-83
2021/01/24 04:12:56;;;;;;;;;;;;;;;-3.00;85.22;91166.84;1063816;55;20181;-84
2021/01/24 04:13:56;;;;;;;;;;;;;;;-3.09;83.56;91167.25;1059217;56;20166;-85
2021/01/24 04:14:57;;;;;;;;;;;;;;;-3.14;83.62;91188.56;1057207;56;20172;-84
2021/01/24 04:15:57;;;;;;;;;;;;;;;-3.22;83.98;91179.97;1059415;56;20165;-82
2021/01/24 04:16:57;;;;;;;;;;;;;;;-3.26;83.59;91174.00;1056962;56;20156;-82
2021/01/24 04:17:58;;;;;;;;;;;;;;;-3.27;82.39;91185.59;1057240;56;20151;-83
2021/01/24 04:18:58;;;;;;;;;;;;;;;-3.26;84.40;91188.94;1057111;56;20268;-83
2021/01/24 04:19:58;;;;;;;;;;;;;;;-3.29;86.58;91180.00;1057321;56;20194;-83
2021/01/24 04:20:59;;;;;;;;;;;;;;;-3.20;88.45;91198.66;1056597;56;20187;-85
2021/01/24 04:21:59;;;;;;;;;;;;;;;-3.24;82.07;91195.28;1054994;56;20175;-83
2021/01/24 04:23:00;;;;;;;;;;;;;;;-3.30;81.88;91186.34;1054937;56;20648;-83
2021/01/24 04:24:00;;;;;;;;;;;;;;;-3.28;83.02;91199.78;1059338;56;20579;-81
2021/01/24 04:25:00;;;;;;;;;;;;;;;-3.26;84.20;91191.56;1059247;56;20159;-82
2021/01/24 04:26:01;;;;;;;;;;;;;;;-3.31;82.21;91200.53;1058990;56;20193;-83
2021/01/24 04:27:01;;;;;;;;;;;;;;;-3.33;82.97;91192.31;1061468;56;20162;-86
2021/01/24 04:28:02;;;;;;;;;;;;;;;-3.29;82.15;91198.28;1061352;56;20180;-82
2021/01/24 04:29:02;;;;;;;;;;;;;;;-3.30;81.89;91196.78;1055096;56;20174;-83
2021/01/24 04:30:03;;;;;;;;;;;;;;;-3.28;82.59;91202.38;1057273;56;20192;-83
2021/01/24 04:31:03;;;;;;;;;;;;;;;-3.30;83.54;91202.00;1059250;56;20158;-85
2021/01/24 04:32:03;;;;;;;;;;;;;;;-3.27;81.93;91205.75;1059396;56;20162;-84
2021/01/24 04:33:05;;;;;;;;;;;;;;;-3.26;83.88;91194.91;1057075;56;20166;-83
2021/01/24 04:34:05;;;;;;;;;;;;;;;-3.26;87.70;91196.78;1056186;56;20177;-83
2021/01/24 04:35:06;;;;;;;;;;;;;;;-3.28;88.24;91199.78;1057216;56;20173;-84
2021/01/24 04:36:07;;;;;;;;;;;;;;;-3.30;88.71;91202.75;1061072;56;20627;-85
2021/01/24 04:37:07;;;;;;;;;;;;;;;-3.27;87.88;91201.25;1059314;56;20256;-84
2021/01/24 04:38:07;;;;;;;;;;;;;;;-3.23;84.44;91196.78;1057260;56;20191;-84
2021/01/24 04:39:07;;;;;;;;;;;;;;;-3.25;89.34;91208.72;1059348;56;20265;-83
2021/01/24 04:40:08;;;;;;;;;;;;;;;-3.22;89.76;91208.72;1059246;56;20147;-82
2021/01/24 04:41:09;;;;;;;;;;;;;;;-3.22;86.35;91205.34;1057007;56;20158;-84
2021/01/24 04:42:09;;;;;;;;;;;;;;;-3.17;84.97;91199.75;1057271;56;20178;-82
2021/01/24 04:43:10;;;;;;;;;;;;;;;-3.22;88.40;91206.09;1057155;56;20155;-82
2021/01/24 04:44:10;;;;;;;;;;;;;;;-3.10;91.18;91202.34;1057179;56;20159;-83
2021/01/24 04:45:11;;;;;;;;;;;;;;;-3.15;88.30;91210.59;1057151;56;20171;-84
2021/01/24 04:46:11;;;;;;;;;;;;;;;-3.13;89.66;91208.31;1057246;56;20194;-81
2021/01/24 04:47:12;;;;;;;;;;;;;;;-3.17;87.09;91210.19;1057092;56;20159;-82
2021/01/24 04:48:13;;;;;;;;;;;;;;;-3.17;87.17;91200.50;1056468;56;20186;-82
2021/01/24 04:49:13;;;;;;;;;;;;;;;-3.18;85.10;91211.31;1058741;56;20154;-83
2021/01/24 04:50:14;;;;;;;;;;;;;;;-3.28;86.70;91205.00;1057082;56;20592;-83
2021/01/24 04:51:15;;;;;;;;;;;;;;;-3.18;87.86;91208.72;1054308;56;20415;-81
2021/01/24 04:52:15;;;;;;;;;;;;;;;-3.20;84.56;91211.72;1059103;56;20182;-84
2021/01/24 04:53:16;;;;;;;;;;;;;;;-3.25;86.56;91212.06;1061647;56;20186;-83
2021/01/24 04:54:16;;;;;;;;;;;;;;;-3.29;85.88;91211.34;1059334;56;20147;-82
2021/01/24 04:55:16;;;;;;;;;;;;;;;-3.34;88.42;91214.31;1055036;56;20147;-83
2021/01/24 04:56:17;;;;;;;;;;;;;;;-3.32;88.50;91222.53;1057207;56;20654;-83
2021/01/24 04:57:19;;;;;;;;;;;;;;;-3.31;85.80;91211.72;1059214;56;20169;-83
2021/01/24 04:58:20;;;;;;;;;;;;;;;-3.36;88.21;91209.47;1057340;56;20178;-82
2021/01/24 04:59:20;;;;;;;;;;;;;;;-3.31;88.33;91222.16;1057285;56;20190;-83
2021/01/24 05:00:21;;;;;;;;;;;;;;;-3.30;85.23;91215.06;1059207;56;20150;-82
2021/01/24 05:01:24;;;;;;;;;;;;;;;-3.41;86.53;91217.72;1061454;56;20186;-83
2021/01/24 05:02:25;;;;;;;;;;;;;;;-3.39;87.04;91214.72;1056904;56;20218;-83
2021/01/24 05:03:25;;;;;;;;;;;;;;;-3.40;88.34;91213.97;1056694;56;20159;-82
2021/01/24 05:04:25;;;;;;;;;;;;;;;-3.36;88.04;91211.34;1059254;56;20755;-82
2021/01/24 05:05:26;;;;;;;;;;;;;;;-3.31;87.77;91216.94;1058991;56;20948;-82
2021/01/24 05:06:26;;;;;;;;;;;;;;;-3.38;87.96;91208.34;1055115;56;20229;-83
2021/01/24 05:07:27;;;;;;;;;;;;;;;-3.37;87.56;91212.47;1057139;56;20178;-84
2021/01/24 05:08:29;;;;;;;;;;;;;;;-3.36;86.77;91216.56;1057193;56;20181;-85
2021/01/24 05:09:29;;;;;;;;;;;;;;;-3.38;87.63;91213.59;1058591;56;20155;-83
2021/01/24 05:10:30;;;;;;;;;;;;;;;-3.32;88.36;91212.09;1058988;56;20238;-83
2021/01/24 05:11:31;;;;;;;;;;;;;;;-3.27;90.26;91213.59;1056882;56;20614;-83
2021/01/24 05:12:32;;;;;;;;;;;;;;;-3.31;90.47;91216.94;1061157;56;20177;-84
2021/01/24 05:13:32;;;;;;;;;;;;;;;-3.37;90.90;91215.09;1059097;56;20174;-83
2021/01/24 05:14:32;;;;;;;;;;;;;;;-3.39;89.62;91217.31;1059279;56;20273;-83
2021/01/24 05:15:35;;;;;;;;;;;;;;;-3.38;90.90;91218.81;1061464;56;20150;-83
2021/01/24 05:16:35;;;;;;;;;;;;;;;-3.43;87.16;91219.19;1057992;56;20170;-84
2021/01/24 05:17:47;;;;;;;;;;;;;;;-3.42;88.17;91216.22;1054905;56;20168;-82
2021/01/24 05:18:57;;;;;;;;;;;;;;;-3.40;85.87;91223.66;1055744;56;20215;-83